createdAt,value
2023-06-29T00:00:30.162Z,19.46
2023-06-29T00:01:30.187Z,19.46
2023-06-29T00:02:30.145Z,19.46
2023-06-29T00:03:30.100Z,19.46
2023-06-29T00:04:30.051Z,19.46
2023-06-29T00:05:30.025Z,19.46
2023-06-29T00:06:30.024Z,19.46
2023-06-29T00:07:30.098Z,19.46
2023-06-29T00:08:30.019Z,19.46
2023-06-29T00:09:30.014Z,19.46
2023-06-29T00:10:29.998Z,19.46
2023-06-29T00:11:29.968Z,19.46
2023-06-29T00:12:29.946Z,19.46
2023-06-29T00:13:29.921Z,19.44
2023-06-29T00:14:29.900Z,19.44
2023-06-29T00:15:29.893Z,19.44
2023-06-29T00:16:29.921Z,19.46
2023-06-29T00:17:29.911Z,19.46
2023-06-29T00:18:29.861Z,19.43
2023-06-29T00:19:29.868Z,19.43
2023-06-29T00:20:29.882Z,19.43
2023-06-29T00:21:29.924Z,19.41
2023-06-29T00:22:29.819Z,19.41
2023-06-29T00:23:29.782Z,19.41
2023-06-29T00:24:29.772Z,19.41
2023-06-29T00:25:29.875Z,19.39
2023-06-29T00:26:29.766Z,19.37
2023-06-29T00:27:29.751Z,19.37
2023-06-29T00:28:29.715Z,19.39
2023-06-29T00:29:29.708Z,19.37
2023-06-29T00:30:29.701Z,19.36
2023-06-29T00:31:29.756Z,19.37
2023-06-29T00:32:29.722Z,19.37
2023-06-29T00:33:29.660Z,19.37
2023-06-29T00:34:29.663Z,19.37
2023-06-29T00:35:29.632Z,19.36
2023-06-29T00:36:29.621Z,19.37
2023-06-29T00:37:29.621Z,19.37
2023-06-29T00:38:29.589Z,19.37
2023-06-29T00:39:29.579Z,19.36
2023-06-29T00:40:29.612Z,19.36
2023-06-29T00:41:29.591Z,19.33
2023-06-29T00:42:29.557Z,19.33
2023-06-29T00:43:29.563Z,19.33
2023-06-29T00:44:29.524Z,19.36
2023-06-29T00:45:29.502Z,19.36
2023-06-29T00:46:29.502Z,19.36
2023-06-29T00:47:29.518Z,19.37
2023-06-29T00:48:29.485Z,19.37
2023-06-29T00:49:29.460Z,19.39
2023-06-29T00:50:29.438Z,19.39
2023-06-29T00:51:29.432Z,19.39
2023-06-29T00:52:29.408Z,19.40
2023-06-29T00:53:29.409Z,19.40
2023-06-29T00:54:29.397Z,19.41
2023-06-29T00:55:29.378Z,19.41
2023-06-29T00:56:29.388Z,19.43
2023-06-29T00:57:29.343Z,19.43
2023-06-29T00:58:29.344Z,19.44
2023-06-29T00:59:29.329Z,19.44
2023-06-29T01:00:29.401Z,19.46
2023-06-29T01:01:29.581Z,19.44
2023-06-29T01:02:29.324Z,19.46
2023-06-29T01:03:29.440Z,19.44
2023-06-29T01:04:29.250Z,19.44
2023-06-29T01:05:29.304Z,19.43
2023-06-29T01:06:29.252Z,19.44
2023-06-29T01:07:29.373Z,19.44
2023-06-29T01:08:29.208Z,19.46
2023-06-29T01:09:29.194Z,19.46
2023-06-29T01:10:29.187Z,19.44
2023-06-29T01:11:29.193Z,19.44
2023-06-29T01:12:29.166Z,19.44
2023-06-29T01:13:29.145Z,19.44
2023-06-29T01:14:29.180Z,19.43
2023-06-29T01:15:29.139Z,19.43
2023-06-29T01:16:29.206Z,19.41
2023-06-29T01:17:29.124Z,19.41
2023-06-29T01:18:29.080Z,19.41
2023-06-29T01:19:29.067Z,19.40
2023-06-29T01:20:29.083Z,19.40
2023-06-29T01:21:29.052Z,19.40
2023-06-29T01:22:29.098Z,19.39
2023-06-29T01:23:29.010Z,19.39
2023-06-29T01:24:29.022Z,19.37
2023-06-29T01:25:29.002Z,19.37
2023-06-29T01:26:29.061Z,19.37
2023-06-29T01:27:28.957Z,19.39
2023-06-29T01:28:28.952Z,19.39
2023-06-29T01:29:28.937Z,19.39
2023-06-29T01:30:28.939Z,19.39
2023-06-29T01:31:29.257Z,19.40
2023-06-29T01:32:28.920Z,19.39
2023-06-29T01:33:28.882Z,19.40
2023-06-29T01:34:28.881Z,19.39
2023-06-29T01:35:28.878Z,19.39
2023-06-29T01:36:28.858Z,19.39
2023-06-29T01:37:28.873Z,19.39
2023-06-29T01:38:28.822Z,19.39
2023-06-29T01:39:28.801Z,19.39
2023-06-29T01:40:28.800Z,19.37
2023-06-29T01:41:28.796Z,19.37
2023-06-29T01:42:28.771Z,19.39
2023-06-29T01:43:28.787Z,19.37
2023-06-29T01:44:28.743Z,19.39
2023-06-29T01:45:28.736Z,19.37
2023-06-29T01:46:28.767Z,19.37
2023-06-29T01:47:28.744Z,19.36
2023-06-29T01:48:28.711Z,19.33
2023-06-29T01:49:28.678Z,19.36
2023-06-29T01:50:28.667Z,19.36
2023-06-29T01:51:28.681Z,19.37
2023-06-29T01:52:28.641Z,19.36
2023-06-29T01:53:31.191Z,19.36
2023-06-29T01:54:28.604Z,19.37
2023-06-29T01:55:28.596Z,19.37
2023-06-29T01:56:28.615Z,19.39
2023-06-29T01:57:28.580Z,19.36
2023-06-29T01:58:28.551Z,19.37
2023-06-29T01:59:28.564Z,19.33
2023-06-29T02:00:28.530Z,19.36
2023-06-29T02:01:28.568Z,19.33
2023-06-29T02:02:28.574Z,19.32
2023-06-29T02:03:28.589Z,19.32
2023-06-29T02:04:28.524Z,19.32
2023-06-29T02:05:28.475Z,19.29
2023-06-29T02:06:28.450Z,19.29
2023-06-29T02:07:28.477Z,19.29
2023-06-29T02:08:28.441Z,19.28
2023-06-29T02:09:28.433Z,19.26
2023-06-29T02:10:28.400Z,19.23
2023-06-29T02:11:28.582Z,19.25
2023-06-29T02:12:28.383Z,19.22
2023-06-29T02:13:28.368Z,19.23
2023-06-29T02:14:28.356Z,19.23
2023-06-29T02:15:28.343Z,19.22
2023-06-29T02:16:28.356Z,19.22
2023-06-29T02:17:28.369Z,19.21
2023-06-29T02:18:28.307Z,19.21
2023-06-29T02:19:28.279Z,19.21
2023-06-29T02:20:28.271Z,19.21
2023-06-29T02:21:28.286Z,19.19
2023-06-29T02:22:28.261Z,19.19
2023-06-29T02:23:28.243Z,19.19
2023-06-29T02:24:28.224Z,19.19
2023-06-29T02:25:28.223Z,19.18
2023-06-29T02:26:28.212Z,19.18
2023-06-29T02:27:28.196Z,19.16
2023-06-29T02:28:28.187Z,19.18
2023-06-29T02:29:28.149Z,19.16
2023-06-29T02:30:28.160Z,19.16
2023-06-29T02:31:28.157Z,19.16
2023-06-29T02:32:28.169Z,19.16
2023-06-29T02:33:28.100Z,19.14
2023-06-29T02:34:28.109Z,19.13
2023-06-29T02:35:28.128Z,19.13
2023-06-29T02:36:28.091Z,19.11
2023-06-29T02:37:28.053Z,19.10
2023-06-29T02:38:28.055Z,19.10
2023-06-29T02:39:28.050Z,19.08
2023-06-29T02:40:28.014Z,19.08
2023-06-29T02:41:28.018Z,19.08
2023-06-29T02:42:27.990Z,19.08
2023-06-29T02:43:27.975Z,19.07
2023-06-29T02:44:27.966Z,19.08
2023-06-29T02:45:27.954Z,19.10
2023-06-29T02:46:28.022Z,19.10
2023-06-29T02:47:27.978Z,19.10
2023-06-29T02:48:27.915Z,19.11
2023-06-29T02:49:27.908Z,19.10
2023-06-29T02:50:27.901Z,19.11
2023-06-29T02:51:27.884Z,19.10
2023-06-29T02:52:27.863Z,19.10
2023-06-29T02:53:27.848Z,19.10
2023-06-29T02:54:27.836Z,19.10
2023-06-29T02:55:27.829Z,19.08
2023-06-29T02:56:27.828Z,19.08
2023-06-29T02:57:27.797Z,19.08
2023-06-29T02:58:27.792Z,19.08
2023-06-29T02:59:27.768Z,19.07
2023-06-29T03:00:27.759Z,19.07
2023-06-29T03:01:27.810Z,19.07
2023-06-29T03:02:27.801Z,19.07
2023-06-29T03:03:27.819Z,19.06
2023-06-29T03:04:27.696Z,19.06
2023-06-29T03:05:27.702Z,19.06
2023-06-29T03:06:27.697Z,19.06
2023-06-29T03:07:27.710Z,19.06
2023-06-29T03:08:27.657Z,19.06
2023-06-29T03:09:27.636Z,19.04
2023-06-29T03:10:27.643Z,19.04
2023-06-29T03:11:27.631Z,19.04
2023-06-29T03:12:27.605Z,19.04
2023-06-29T03:13:27.597Z,19.04
2023-06-29T03:14:27.595Z,19.04
2023-06-29T03:15:27.568Z,19.04
2023-06-29T03:16:27.618Z,19.04
2023-06-29T03:17:27.610Z,19.02
2023-06-29T03:18:27.527Z,19.02
2023-06-29T03:19:27.521Z,19.04
2023-06-29T03:20:27.507Z,19.02
2023-06-29T03:21:27.508Z,19.02
2023-06-29T03:22:27.475Z,19.02
2023-06-29T03:23:27.464Z,19.04
2023-06-29T03:24:27.453Z,19.04
2023-06-29T03:25:27.442Z,19.04
2023-06-29T03:26:27.448Z,19.04
2023-06-29T03:27:27.430Z,19.04
2023-06-29T03:28:27.408Z,19.04
2023-06-29T03:29:27.381Z,19.04
2023-06-29T03:30:27.417Z,19.02
2023-06-29T03:31:27.440Z,19.04
2023-06-29T03:32:27.412Z,19.04
2023-06-29T03:33:27.340Z,19.04
2023-06-29T03:34:27.319Z,19.02
2023-06-29T03:35:27.306Z,19.00
2023-06-29T03:36:27.349Z,19.04
2023-06-29T03:37:27.301Z,19.04
2023-06-29T03:38:27.278Z,19.04
2023-06-29T03:39:27.259Z,19.04
2023-06-29T03:40:27.264Z,19.04
2023-06-29T03:41:27.247Z,19.04
2023-06-29T03:42:27.251Z,19.06
2023-06-29T03:43:27.228Z,19.06
2023-06-29T03:44:27.199Z,19.06
2023-06-29T03:45:27.191Z,19.07
2023-06-29T03:46:27.174Z,19.08
2023-06-29T03:47:27.245Z,19.07
2023-06-29T03:48:27.206Z,19.07
2023-06-29T03:49:27.125Z,19.07
2023-06-29T03:50:28.073Z,19.08
2023-06-29T03:51:27.100Z,19.08
2023-06-29T03:52:27.107Z,19.10
2023-06-29T03:53:27.093Z,19.11
2023-06-29T03:54:27.057Z,19.10
2023-06-29T03:55:27.056Z,19.11
2023-06-29T03:56:27.038Z,19.11
2023-06-29T03:57:27.040Z,19.10
2023-06-29T03:58:27.016Z,19.13
2023-06-29T03:59:27.031Z,19.13
2023-06-29T04:00:26.988Z,19.13
2023-06-29T04:01:27.248Z,19.13
2023-06-29T04:02:27.067Z,19.11
2023-06-29T04:03:27.007Z,19.13
2023-06-29T04:04:26.928Z,19.14
2023-06-29T04:05:26.923Z,19.14
2023-06-29T04:06:26.946Z,19.14
2023-06-29T04:07:27.069Z,19.16
2023-06-29T04:08:26.886Z,19.16
2023-06-29T04:09:26.877Z,19.18
2023-06-29T04:10:26.857Z,19.18
2023-06-29T04:11:26.861Z,19.19
2023-06-29T04:12:26.853Z,19.18
2023-06-29T04:13:26.814Z,19.19
2023-06-29T04:14:26.816Z,19.18
2023-06-29T04:15:26.797Z,19.21
2023-06-29T04:16:26.856Z,19.22
2023-06-29T04:17:26.846Z,19.21
2023-06-29T04:18:26.773Z,19.22
2023-06-29T04:19:26.745Z,19.22
2023-06-29T04:20:26.725Z,19.23
2023-06-29T04:21:26.742Z,19.23
2023-06-29T04:22:26.732Z,19.22
2023-06-29T04:23:26.687Z,19.23
2023-06-29T04:24:26.677Z,19.25
2023-06-29T04:25:26.667Z,19.25
2023-06-29T04:26:26.664Z,19.25
2023-06-29T04:27:26.637Z,19.25
2023-06-29T04:28:26.632Z,19.25
2023-06-29T04:29:26.608Z,19.26
2023-06-29T04:30:26.622Z,19.26
2023-06-29T04:31:26.591Z,19.26
2023-06-29T04:32:26.605Z,19.28
2023-06-29T04:33:26.567Z,19.28
2023-06-29T04:34:26.548Z,19.29
2023-06-29T04:35:26.548Z,19.31
2023-06-29T04:36:26.540Z,19.31
2023-06-29T04:37:26.617Z,19.31
2023-06-29T04:38:26.493Z,19.32
2023-06-29T04:39:26.473Z,19.31
2023-06-29T04:40:26.470Z,19.31
2023-06-29T04:41:26.463Z,19.33
2023-06-29T04:42:26.448Z,19.32
2023-06-29T04:43:26.427Z,19.37
2023-06-29T04:44:26.424Z,19.36
2023-06-29T04:45:26.421Z,19.37
2023-06-29T04:46:26.511Z,19.39
2023-06-29T04:47:26.422Z,19.40
2023-06-29T04:48:26.357Z,19.40
2023-06-29T04:49:26.358Z,19.40
2023-06-29T04:50:26.735Z,19.41
2023-06-29T04:51:26.389Z,19.43
2023-06-29T04:52:26.330Z,19.44
2023-06-29T04:53:26.295Z,19.46
2023-06-29T04:54:26.288Z,19.46
2023-06-29T04:55:26.271Z,19.47
2023-06-29T04:56:26.289Z,19.47
2023-06-29T04:57:29.454Z,19.47
2023-06-29T04:58:26.244Z,19.48
2023-06-29T04:59:26.248Z,19.50
2023-06-29T05:00:26.205Z,19.51
2023-06-29T05:01:26.245Z,19.54
2023-06-29T05:02:26.301Z,19.51
2023-06-29T05:03:26.439Z,19.54
2023-06-29T05:04:26.159Z,19.56
2023-06-29T05:05:26.143Z,19.55
2023-06-29T05:06:26.143Z,19.56
2023-06-29T05:07:26.121Z,19.56
2023-06-29T05:08:26.106Z,19.58
2023-06-29T05:09:26.093Z,19.56
2023-06-29T05:10:26.112Z,19.58
2023-06-29T05:11:26.084Z,19.61
2023-06-29T05:12:26.068Z,19.61
2023-06-29T05:13:26.048Z,19.62
2023-06-29T05:14:26.041Z,19.62
2023-06-29T05:15:26.025Z,19.65
2023-06-29T05:16:26.026Z,19.63
2023-06-29T05:17:26.054Z,19.63
2023-06-29T05:18:25.980Z,19.63
2023-06-29T05:19:25.963Z,19.65
2023-06-29T05:20:25.984Z,19.65
2023-06-29T05:21:25.937Z,19.68
2023-06-29T05:22:25.946Z,19.68
2023-06-29T05:23:25.920Z,19.71
2023-06-29T05:24:25.916Z,19.69
2023-06-29T05:25:25.900Z,19.71
2023-06-29T05:26:25.894Z,19.73
2023-06-29T05:27:25.871Z,19.74
2023-06-29T05:28:25.851Z,19.74
2023-06-29T05:29:25.843Z,19.77
2023-06-29T05:30:25.822Z,19.77
2023-06-29T05:31:25.871Z,19.78
2023-06-29T05:32:25.870Z,19.83
2023-06-29T05:33:25.815Z,19.84
2023-06-29T05:34:25.781Z,19.87
2023-06-29T05:35:25.773Z,19.88
2023-06-29T05:36:25.810Z,19.91
2023-06-29T05:37:25.736Z,19.92
2023-06-29T05:38:25.719Z,19.94
2023-06-29T05:39:25.702Z,19.95
2023-06-29T05:40:25.696Z,19.95
2023-06-29T05:41:25.964Z,19.98
2023-06-29T05:42:25.676Z,19.99
2023-06-29T05:43:25.656Z,20.02
2023-06-29T05:44:25.651Z,20.02
2023-06-29T05:45:25.625Z,20.08
2023-06-29T05:46:25.755Z,20.10
2023-06-29T05:47:25.741Z,20.11
2023-06-29T05:48:25.609Z,20.13
2023-06-29T05:49:25.587Z,20.14
2023-06-29T05:50:25.578Z,20.16
2023-06-29T05:51:25.587Z,20.17
2023-06-29T05:52:25.560Z,20.20
2023-06-29T05:53:25.521Z,20.21
2023-06-29T05:54:25.518Z,20.23
2023-06-29T05:55:25.502Z,20.26
2023-06-29T05:56:25.512Z,20.31
2023-06-29T05:57:25.495Z,20.31
2023-06-29T05:58:25.458Z,20.33
2023-06-29T05:59:25.446Z,20.33
2023-06-29T06:00:25.437Z,20.36
2023-06-29T06:01:25.425Z,20.38
2023-06-29T06:02:25.651Z,20.41
2023-06-29T06:03:25.412Z,20.43
2023-06-29T06:04:25.382Z,20.48
2023-06-29T06:05:25.368Z,20.51
2023-06-29T06:06:25.358Z,20.51
2023-06-29T06:07:25.427Z,20.52
2023-06-29T06:08:25.351Z,20.55
2023-06-29T06:09:25.319Z,20.55
2023-06-29T06:10:25.305Z,20.58
2023-06-29T06:11:25.475Z,20.59
2023-06-29T06:12:25.311Z,20.64
2023-06-29T06:13:25.272Z,20.66
2023-06-29T06:14:25.259Z,20.67
2023-06-29T06:15:25.262Z,20.70
2023-06-29T06:16:25.280Z,20.72
2023-06-29T06:17:25.322Z,20.73
2023-06-29T06:18:25.199Z,20.74
2023-06-29T06:19:25.196Z,20.74
2023-06-29T06:20:25.178Z,20.76
2023-06-29T06:21:25.540Z,20.76
2023-06-29T06:22:25.198Z,20.79
2023-06-29T06:23:25.137Z,20.82
2023-06-29T06:24:25.130Z,20.84
2023-06-29T06:25:25.144Z,20.87
2023-06-29T06:26:25.120Z,20.88
2023-06-29T06:27:25.136Z,20.89
2023-06-29T06:28:25.072Z,20.91
2023-06-29T06:29:25.064Z,20.92
2023-06-29T06:30:25.042Z,20.95
2023-06-29T06:31:33.601Z,20.99
2023-06-29T06:32:26.074Z,21.04
2023-06-29T06:33:25.015Z,21.06
2023-06-29T06:34:25.014Z,21.07
2023-06-29T06:35:25.001Z,21.10
2023-06-29T06:36:24.980Z,21.12
2023-06-29T06:37:24.964Z,21.16
2023-06-29T06:38:34.424Z,21.19
2023-06-29T06:39:25.925Z,21.22
2023-06-29T06:40:24.930Z,21.21
2023-06-29T06:41:24.904Z,21.22
2023-06-29T06:42:24.999Z,21.25
2023-06-29T06:43:24.877Z,21.25
2023-06-29T06:44:24.867Z,21.29
2023-06-29T06:45:24.862Z,21.29
2023-06-29T06:46:24.885Z,21.34
2023-06-29T06:47:24.912Z,21.38
2023-06-29T06:48:24.809Z,21.42
2023-06-29T06:49:24.808Z,21.46
2023-06-29T06:50:24.789Z,21.49
2023-06-29T06:51:24.787Z,21.52
2023-06-29T06:52:24.756Z,21.56
2023-06-29T06:53:24.744Z,21.59
2023-06-29T06:54:24.731Z,21.64
2023-06-29T06:55:24.744Z,21.67
2023-06-29T06:56:24.733Z,21.69
2023-06-29T06:57:24.712Z,21.74
2023-06-29T06:58:24.689Z,21.75
2023-06-29T06:59:24.678Z,21.82
2023-06-29T07:00:24.657Z,21.83
2023-06-29T07:01:25.138Z,21.82
2023-06-29T07:02:24.781Z,21.80
2023-06-29T07:03:24.646Z,21.82
2023-06-29T07:04:24.597Z,21.83
2023-06-29T07:05:24.591Z,21.83
2023-06-29T07:06:24.604Z,21.83
2023-06-29T07:07:24.633Z,21.82
2023-06-29T07:08:24.555Z,21.83
2023-06-29T07:09:24.559Z,21.86
2023-06-29T07:10:24.534Z,21.91
2023-06-29T07:11:24.534Z,21.92
2023-06-29T07:12:24.511Z,21.94
2023-06-29T07:13:24.554Z,21.96
2023-06-29T07:14:24.481Z,21.99
2023-06-29T07:15:24.482Z,22.02
2023-06-29T07:16:24.465Z,22.05
2023-06-29T07:17:24.557Z,22.07
2023-06-29T07:18:24.449Z,22.10
2023-06-29T07:21:26.143Z,22.18
2023-06-29T07:24:24.355Z,22.28
2023-06-29T07:25:24.388Z,22.31
2023-06-29T07:26:24.321Z,22.30
2023-06-29T07:27:24.325Z,22.31
2023-06-29T07:28:24.302Z,22.30
2023-06-29T07:29:24.290Z,22.31
2023-06-29T07:30:24.302Z,22.33
2023-06-29T07:31:24.406Z,22.33
2023-06-29T07:32:24.287Z,22.33
2023-06-29T07:33:24.237Z,22.33
2023-06-29T07:34:24.363Z,22.30
2023-06-29T07:35:24.209Z,22.30
2023-06-29T07:36:24.196Z,22.33
2023-06-29T07:37:24.199Z,22.35
2023-06-29T07:38:24.164Z,22.37
2023-06-29T07:39:24.248Z,22.40
2023-06-29T07:40:24.228Z,22.43
2023-06-29T07:41:24.136Z,22.43
2023-06-29T07:42:38.172Z,22.45
2023-06-29T07:43:25.120Z,22.46
2023-06-29T07:44:24.092Z,22.46
2023-06-29T07:45:24.088Z,22.47
2023-06-29T07:46:24.083Z,22.49
2023-06-29T07:47:24.472Z,22.46
2023-06-29T07:48:24.264Z,22.46
2023-06-29T07:49:24.026Z,22.49
2023-06-29T07:50:24.049Z,22.49
2023-06-29T07:51:24.166Z,22.49
2023-06-29T07:52:24.016Z,22.52
2023-06-29T07:53:23.993Z,22.52
2023-06-29T07:54:23.973Z,22.49
2023-06-29T07:55:24.009Z,22.45
2023-06-29T07:56:23.975Z,22.46
2023-06-29T07:59:23.904Z,22.47
2023-06-29T08:00:23.948Z,22.49
2023-06-29T08:01:23.897Z,22.51
2023-06-29T08:02:23.940Z,22.51
2023-06-29T08:03:23.847Z,22.51
2023-06-29T08:07:23.929Z,22.52
2023-06-29T08:08:23.837Z,22.49
2023-06-29T08:09:23.787Z,22.46
2023-06-29T08:10:23.783Z,22.46
2023-06-29T08:11:23.754Z,22.46
2023-06-29T08:12:23.746Z,22.47
2023-06-29T08:13:23.714Z,22.45
2023-06-29T08:14:23.711Z,22.46
2023-06-29T08:15:23.695Z,22.46
2023-06-29T08:16:23.739Z,22.46
2023-06-29T08:17:23.728Z,22.46
2023-06-29T08:18:23.657Z,22.46
2023-06-29T08:19:23.673Z,22.47
2023-06-29T08:20:23.700Z,22.47
2023-06-29T08:21:23.619Z,22.46
2023-06-29T08:22:23.642Z,22.43
2023-06-29T08:23:23.606Z,22.45
2023-06-29T08:24:23.616Z,22.46
2023-06-29T08:25:23.572Z,22.49
2023-06-29T08:26:23.559Z,22.51
2023-06-29T08:27:23.561Z,22.52
2023-06-29T08:28:23.543Z,22.54
2023-06-29T08:29:23.525Z,22.55
2023-06-29T08:30:23.564Z,22.58
2023-06-29T08:31:23.543Z,22.61
2023-06-29T08:32:23.630Z,22.62
2023-06-29T08:33:23.729Z,22.67
2023-06-29T08:34:23.465Z,22.72
2023-06-29T08:35:23.439Z,22.76
2023-06-29T08:36:23.427Z,22.75
2023-06-29T08:37:23.421Z,22.76
2023-06-29T08:38:23.447Z,22.77
2023-06-29T08:39:23.394Z,22.80
2023-06-29T08:40:23.432Z,22.86
2023-06-29T08:41:23.369Z,22.90
2023-06-29T08:42:23.354Z,22.91
2023-06-29T08:43:23.495Z,22.92
2023-06-29T08:44:23.329Z,23.00
2023-06-29T08:45:23.302Z,23.02
2023-06-29T08:46:23.308Z,23.09
2023-06-29T08:47:23.393Z,23.10
2023-06-29T08:48:23.281Z,23.13
2023-06-29T08:49:23.309Z,23.15
2023-06-29T08:50:23.303Z,23.17
2023-06-29T08:51:23.264Z,23.16
2023-06-29T08:52:23.225Z,23.12
2023-06-29T08:53:23.293Z,23.13
2023-06-29T08:54:23.211Z,23.09
2023-06-29T08:55:23.180Z,23.02
2023-06-29T08:56:23.177Z,23.04
2023-06-29T08:57:23.152Z,23.05
2023-06-29T08:58:23.159Z,23.12
2023-06-29T08:59:23.133Z,23.10
2023-06-29T09:00:23.154Z,23.12
2023-06-29T09:01:23.134Z,23.12
2023-06-29T09:02:23.212Z,23.15
2023-06-29T09:03:23.150Z,23.16
2023-06-29T09:04:23.069Z,23.19
2023-06-29T09:05:23.061Z,23.22
2023-06-29T09:06:23.041Z,23.25
2023-06-29T09:07:23.067Z,23.23
2023-06-29T09:08:23.096Z,23.22
2023-06-29T09:09:22.993Z,23.23
2023-06-29T09:10:22.995Z,23.23
2023-06-29T09:11:22.996Z,23.28
2023-06-29T09:12:22.958Z,23.28
2023-06-29T09:13:22.948Z,23.33
2023-06-29T09:14:22.945Z,23.36
2023-06-29T09:15:22.924Z,23.39
2023-06-29T09:16:22.942Z,23.40
2023-06-29T09:17:23.091Z,23.43
2023-06-29T09:18:22.879Z,23.46
2023-06-29T09:19:22.876Z,23.48
2023-06-29T09:20:22.886Z,23.53
2023-06-29T09:21:22.845Z,23.57
2023-06-29T09:22:22.847Z,23.65
2023-06-29T09:23:22.814Z,23.66
2023-06-29T09:24:22.812Z,23.70
2023-06-29T09:25:32.764Z,23.73
2023-06-29T09:26:23.821Z,23.78
2023-06-29T09:27:22.793Z,23.76
2023-06-29T09:28:22.758Z,23.80
2023-06-29T09:29:22.744Z,23.83
2023-06-29T09:30:22.731Z,23.83
2023-06-29T09:31:22.766Z,23.85
2023-06-29T09:32:22.716Z,23.84
2023-06-29T09:33:22.712Z,23.83
2023-06-29T09:34:22.685Z,23.83
2023-06-29T09:35:22.668Z,23.83
2023-06-29T09:36:22.648Z,23.84
2023-06-29T09:37:22.656Z,23.83
2023-06-29T09:38:22.659Z,23.80
2023-06-29T09:39:22.615Z,23.76
2023-06-29T09:40:22.607Z,23.78
2023-06-29T09:41:22.591Z,23.79
2023-06-29T09:42:22.638Z,23.80
2023-06-29T09:43:22.562Z,23.84
2023-06-29T09:44:22.596Z,23.84
2023-06-29T09:45:22.535Z,23.87
2023-06-29T09:46:22.642Z,23.85
2023-06-29T09:49:22.980Z,23.88
2023-06-29T09:50:22.696Z,23.93
2023-06-29T09:51:22.673Z,23.98
2023-06-29T09:52:22.594Z,24.02
2023-06-29T09:53:22.456Z,23.97
2023-06-29T09:54:22.451Z,23.94
2023-06-29T09:55:22.413Z,23.95
2023-06-29T09:56:22.400Z,23.95
2023-06-29T09:57:22.379Z,23.93
2023-06-29T09:58:22.366Z,23.87
2023-06-29T09:59:22.374Z,23.84
2023-06-29T10:00:22.341Z,23.83
2023-06-29T10:01:22.409Z,23.83
2023-06-29T10:02:22.428Z,23.80
2023-06-29T10:03:22.342Z,23.79
2023-06-29T10:04:22.342Z,23.80
2023-06-29T10:05:22.279Z,23.80
2023-06-29T10:06:22.292Z,23.78
2023-06-29T10:07:22.431Z,23.76
2023-06-29T10:08:22.241Z,23.76
2023-06-29T10:09:22.274Z,23.73
2023-06-29T10:10:22.237Z,23.76
2023-06-29T10:11:22.216Z,23.78
2023-06-29T10:12:22.189Z,23.80
2023-06-29T10:13:22.196Z,23.80
2023-06-29T10:14:22.216Z,23.80
2023-06-29T10:15:22.155Z,23.76
2023-06-29T10:16:22.178Z,23.70
2023-06-29T10:17:22.143Z,23.69
2023-06-29T10:18:22.135Z,23.68
2023-06-29T10:19:22.102Z,23.69
2023-06-29T10:20:22.114Z,23.69
2023-06-29T10:21:22.108Z,23.69
2023-06-29T10:22:22.068Z,23.72
2023-06-29T10:23:22.803Z,23.72
2023-06-29T10:24:22.039Z,23.73
2023-06-29T10:25:22.064Z,23.75
2023-06-29T10:26:22.019Z,23.76
2023-06-29T10:27:22.028Z,23.79
2023-06-29T10:28:22.001Z,23.83
2023-06-29T10:29:23.241Z,23.80
2023-06-29T10:30:21.961Z,23.80
2023-06-29T10:31:22.007Z,23.78
2023-06-29T10:32:21.957Z,23.76
2023-06-29T10:33:21.923Z,23.78
2023-06-29T10:34:21.928Z,23.79
2023-06-29T10:35:23.107Z,23.80
2023-06-29T10:36:21.966Z,23.84
2023-06-29T10:37:21.918Z,23.84
2023-06-29T10:38:21.862Z,23.85
2023-06-29T10:39:21.849Z,23.83
2023-06-29T10:40:21.834Z,23.84
2023-06-29T10:41:21.826Z,23.84
2023-06-29T10:42:21.837Z,23.87
2023-06-29T10:43:21.813Z,23.87
2023-06-29T10:44:21.784Z,23.90
2023-06-29T10:45:21.778Z,23.93
2023-06-29T10:46:21.881Z,23.97
2023-06-29T10:47:21.758Z,23.90
2023-06-29T10:48:38.433Z,23.88
2023-06-29T10:49:22.749Z,23.91
2023-06-29T10:50:21.707Z,23.97
2023-06-29T10:51:21.700Z,24.03
2023-06-29T10:52:21.707Z,24.06
2023-06-29T10:53:21.690Z,24.12
2023-06-29T10:54:21.683Z,24.18
2023-06-29T10:55:21.697Z,24.24
2023-06-29T10:56:21.638Z,24.34
2023-06-29T10:57:21.654Z,24.45
2023-06-29T10:58:21.601Z,24.58
2023-06-29T10:59:21.588Z,24.73
2023-06-29T11:00:21.772Z,24.85
2023-06-29T11:01:21.634Z,24.99
2023-06-29T11:02:21.622Z,25.14
2023-06-29T11:03:21.569Z,25.28
2023-06-29T11:04:21.630Z,25.39
2023-06-29T11:05:21.535Z,25.47
2023-06-29T11:06:33.233Z,25.50
2023-06-29T11:07:22.654Z,25.55
2023-06-29T11:08:21.485Z,25.52
2023-06-29T11:09:21.497Z,25.54
2023-06-29T11:10:21.458Z,25.57
2023-06-29T11:11:21.454Z,25.58
2023-06-29T11:12:21.466Z,25.57
2023-06-29T11:13:21.425Z,25.57
2023-06-29T11:14:21.429Z,25.55
2023-06-29T11:15:21.592Z,25.61
2023-06-29T11:16:21.454Z,25.70
2023-06-29T11:17:21.406Z,25.80
2023-06-29T11:18:21.376Z,25.91
2023-06-29T11:19:21.351Z,26.06
2023-06-29T11:20:21.337Z,26.23
2023-06-29T11:21:21.318Z,26.40
2023-06-29T11:22:21.308Z,26.58
2023-06-29T11:23:21.288Z,26.77
2023-06-29T11:24:21.485Z,26.84
2023-06-29T11:25:21.267Z,26.97
2023-06-29T11:26:21.272Z,27.07
2023-06-29T11:27:21.247Z,27.17
2023-06-29T11:28:21.251Z,27.24
2023-06-29T11:29:21.213Z,27.27
2023-06-29T11:30:21.212Z,27.32
2023-06-29T11:31:21.325Z,27.43
2023-06-29T11:32:21.195Z,27.44
2023-06-29T11:33:33.452Z,27.47
2023-06-29T11:34:22.145Z,27.50
2023-06-29T11:35:21.134Z,27.59
2023-06-29T11:36:21.156Z,27.66
2023-06-29T11:37:23.841Z,27.69
2023-06-29T11:38:21.158Z,27.72
2023-06-29T11:39:21.096Z,27.78
2023-06-29T11:40:21.086Z,27.82
2023-06-29T11:41:21.158Z,27.85
2023-06-29T11:42:21.088Z,27.81
2023-06-29T11:43:23.212Z,27.81
2023-06-29T11:44:21.034Z,27.72
2023-06-29T11:45:21.009Z,27.65
2023-06-29T11:46:21.114Z,27.47
2023-06-29T11:48:22.067Z,27.04
2023-06-29T11:49:22.849Z,26.95
2023-06-29T11:50:21.014Z,26.82
2023-06-29T11:51:21.002Z,26.75
2023-06-29T11:52:20.985Z,26.73
2023-06-29T11:53:20.955Z,26.72
2023-06-29T11:54:21.007Z,26.73
2023-06-29T11:55:23.763Z,26.73
2023-06-29T11:56:20.870Z,26.75
2023-06-29T11:57:20.862Z,26.77
2023-06-29T11:58:20.827Z,26.76
2023-06-29T11:59:20.858Z,26.77
2023-06-29T12:00:20.868Z,26.76
2023-06-29T12:01:22.625Z,26.75
2023-06-29T12:02:20.838Z,26.76
2023-06-29T12:03:20.914Z,26.73
2023-06-29T12:04:20.801Z,26.69
2023-06-29T12:05:20.755Z,26.69
2023-06-29T12:06:20.741Z,26.65
2023-06-29T12:07:20.872Z,26.48
2023-06-29T12:08:20.794Z,26.37
2023-06-29T12:09:20.723Z,26.26
2023-06-29T12:10:20.681Z,26.10
2023-06-29T12:11:22.856Z,25.98
2023-06-29T12:12:20.681Z,25.92
2023-06-29T12:13:20.668Z,25.88
2023-06-29T12:14:20.653Z,25.82
2023-06-29T12:15:20.653Z,25.77
2023-06-29T12:18:20.762Z,25.69
2023-06-29T12:19:20.715Z,25.67
2023-06-29T12:20:20.731Z,25.65
2023-06-29T12:21:20.747Z,25.64
2023-06-29T12:22:20.541Z,25.60
2023-06-29T12:23:20.508Z,25.51
2023-06-29T12:24:20.529Z,25.40
2023-06-29T12:25:20.476Z,25.35
2023-06-29T12:26:20.466Z,25.23
2023-06-29T12:27:20.480Z,25.13
2023-06-29T12:28:20.448Z,25.02
2023-06-29T12:29:20.450Z,24.90
2023-06-29T12:30:20.434Z,24.78
2023-06-29T12:31:20.489Z,24.68
2023-06-29T12:32:20.420Z,24.60
2023-06-29T12:33:20.391Z,24.52
2023-06-29T12:34:20.395Z,24.42
2023-06-29T12:35:20.366Z,24.35
2023-06-29T12:36:20.347Z,24.28
2023-06-29T12:37:20.334Z,24.22
2023-06-29T12:38:20.318Z,24.16
2023-06-29T12:39:20.323Z,24.10
2023-06-29T12:40:20.297Z,24.09
2023-06-29T12:41:20.292Z,24.03
2023-06-29T12:42:20.294Z,24.00
2023-06-29T12:43:20.267Z,23.98
2023-06-29T12:44:20.261Z,23.93
2023-06-29T12:45:20.248Z,23.88
2023-06-29T12:46:20.221Z,23.84
2023-06-29T12:47:20.258Z,23.80
2023-06-29T12:48:20.292Z,23.78
2023-06-29T12:49:20.176Z,23.76
2023-06-29T12:50:20.182Z,23.75
2023-06-29T12:51:20.171Z,23.75
2023-06-29T12:52:20.167Z,23.73
2023-06-29T12:53:20.138Z,23.73
2023-06-29T12:54:20.121Z,23.75
2023-06-29T12:55:20.118Z,23.76
2023-06-29T12:56:20.088Z,23.76
2023-06-29T12:57:20.102Z,23.78
2023-06-29T12:58:20.067Z,23.79
2023-06-29T12:59:20.079Z,23.80
2023-06-29T13:00:20.045Z,23.87
2023-06-29T13:01:20.065Z,23.93
2023-06-29T13:02:20.090Z,23.95
2023-06-29T13:03:20.214Z,24.05
2023-06-29T13:04:20.128Z,24.16
2023-06-29T13:05:19.978Z,24.27
2023-06-29T13:06:19.988Z,24.42